createdAt,value
2018-06-02T00:00:09.764Z,99.70
2018-06-02T00:02:38.043Z,99.70
2018-06-02T00:05:08.005Z,99.90
2018-06-02T00:07:36.301Z,99.90
2018-06-02T00:10:04.629Z,99.70
2018-06-02T00:12:32.964Z,99.30
2018-06-02T00:15:02.021Z,99.50
2018-06-02T00:17:30.441Z,99.50
2018-06-02T00:19:58.768Z,99.30
2018-06-02T00:22:27.872Z,99.60
2018-06-02T00:24:56.231Z,99.60
2018-06-02T00:27:24.518Z,99.80
2018-06-02T00:29:53.610Z,99.80
2018-06-02T00:32:22.209Z,99.70
2018-06-02T00:34:50.600Z,99.70
2018-06-02T00:37:18.905Z,99.70
2018-06-02T00:39:47.371Z,99.70
2018-06-02T00:42:15.761Z,99.80
2018-06-02T00:44:44.877Z,99.70
2018-06-02T00:47:13.543Z,99.70
2018-06-02T00:49:42.696Z,99.70
2018-06-02T00:52:11.818Z,99.50
2018-06-02T00:54:52.030Z,99.50
2018-06-02T00:57:20.882Z,99.80
2018-06-02T00:59:49.183Z,99.70
2018-06-02T01:02:17.505Z,99.70
2018-06-02T01:04:45.892Z,99.80
2018-06-02T01:07:14.398Z,99.80
2018-06-02T01:09:43.014Z,99.80
2018-06-02T01:12:11.378Z,99.70
2018-06-02T01:14:39.738Z,99.90
2018-06-02T01:17:08.034Z,99.90
2018-06-02T01:19:38.049Z,99.90
2018-06-02T01:22:06.354Z,99.90
2018-06-02T01:24:34.664Z,99.90
2018-06-02T01:27:02.985Z,99.90
2018-06-02T01:29:31.446Z,99.90
2018-06-02T01:31:59.805Z,99.60
2018-06-02T01:34:28.097Z,98.90
2018-06-02T01:36:56.577Z,98.80
2018-06-02T01:39:24.954Z,98.30
2018-06-02T01:41:53.241Z,98.20
2018-06-02T01:44:22.375Z,98.60
2018-06-02T01:46:50.710Z,98.40
2018-06-02T01:49:19.045Z,98.30
2018-06-02T01:51:47.514Z,98.80
2018-06-02T01:54:15.848Z,99.00
2018-06-02T01:56:44.222Z,98.80
2018-06-02T01:59:12.561Z,98.70
2018-06-02T02:01:40.890Z,98.50
2018-06-02T02:04:09.326Z,98.80
2018-06-02T02:06:37.650Z,98.90
2018-06-02T02:09:07.449Z,98.60
2018-06-02T02:11:37.633Z,98.60
2018-06-02T02:14:06.024Z,98.60
2018-06-02T02:16:34.328Z,98.80
2018-06-02T02:19:02.648Z,99.00
2018-06-02T02:21:31.051Z,99.40
2018-06-02T02:23:59.353Z,99.90
2018-06-02T02:26:27.746Z,99.90
2018-06-02T02:28:56.037Z,99.90
2018-06-02T02:31:24.324Z,99.90
2018-06-02T02:33:52.652Z,99.90
2018-06-02T02:36:20.946Z,99.90
2018-06-02T02:38:49.358Z,99.90
2018-06-02T02:41:17.650Z,99.90
2018-06-02T02:43:46.049Z,99.90
2018-06-02T02:46:14.392Z,99.90
2018-06-02T02:48:43.522Z,99.90
2018-06-02T02:51:12.659Z,99.90
2018-06-02T02:53:40.977Z,99.90
2018-06-02T02:56:09.311Z,99.90
2018-06-02T02:58:37.700Z,99.90
2018-06-02T03:01:06.109Z,99.90
2018-06-02T03:03:34.410Z,99.90
2018-06-02T03:06:02.711Z,99.90
2018-06-02T03:08:31.033Z,99.90
2018-06-02T03:10:59.478Z,99.90
2018-06-02T03:13:27.783Z,99.90
2018-06-02T03:15:56.828Z,99.90
2018-06-02T03:18:25.158Z,99.90
2018-06-02T03:20:53.562Z,99.90
2018-06-02T03:23:21.970Z,99.90
2018-06-02T03:25:50.573Z,99.90
2018-06-02T03:28:18.981Z,99.90
2018-06-02T03:30:47.278Z,99.90
2018-06-02T03:33:15.681Z,99.90
2018-06-02T03:35:44.225Z,99.90
2018-06-02T03:38:12.686Z,99.90
2018-06-02T03:40:40.997Z,99.90
2018-06-02T03:43:09.335Z,99.90
2018-06-02T03:45:38.425Z,99.90
2018-06-02T03:48:06.826Z,99.90
2018-06-02T03:50:35.126Z,99.90
2018-06-02T03:53:03.453Z,99.90
2018-06-02T03:55:32.508Z,99.90
2018-06-02T03:58:00.806Z,99.90
2018-06-02T04:00:29.162Z,99.90
2018-06-02T04:02:57.461Z,99.90
2018-06-02T04:05:25.803Z,99.90
2018-06-02T04:07:54.859Z,99.90
2018-06-02T04:10:23.185Z,99.90
2018-06-02T04:12:52.993Z,99.90
2018-06-02T04:15:21.416Z,99.90
2018-06-02T04:17:49.719Z,99.90
2018-06-02T04:20:18.040Z,99.90
2018-06-02T04:22:46.397Z,99.90
2018-06-02T04:25:14.729Z,99.90
2018-06-02T04:27:43.121Z,99.90
2018-06-02T04:30:12.231Z,99.90
2018-06-02T04:32:40.545Z,99.90
2018-06-02T04:35:08.954Z,99.90
2018-06-02T04:37:37.264Z,99.90
2018-06-02T04:40:05.557Z,99.90
2018-06-02T04:42:33.886Z,99.90
2018-06-02T04:45:02.181Z,99.90
2018-06-02T04:47:30.673Z,99.90
2018-06-02T04:49:59.062Z,99.90
2018-06-02T04:52:27.377Z,99.90
2018-06-02T04:54:55.892Z,99.90
2018-06-02T04:57:24.185Z,99.90
2018-06-02T04:59:52.593Z,99.90
2018-06-02T05:02:20.924Z,99.90
2018-06-02T05:04:49.988Z,99.90
2018-06-02T05:07:18.284Z,99.90
2018-06-02T05:09:46.653Z,99.90
2018-06-02T05:12:15.723Z,99.90
2018-06-02T05:14:44.334Z,99.90
2018-06-02T05:17:12.653Z,99.90
2018-06-02T05:19:42.454Z,99.90
2018-06-02T05:22:10.989Z,99.90
2018-06-02T05:24:39.392Z,99.90
2018-06-02T05:27:07.694Z,99.90
2018-06-02T05:29:36.292Z,99.90
2018-06-02T05:32:04.578Z,99.90
2018-06-02T05:34:32.868Z,99.90
2018-06-02T05:37:01.201Z,99.90
2018-06-02T05:39:29.517Z,99.90
2018-06-02T05:41:57.937Z,99.90
2018-06-02T05:44:26.237Z,99.90
2018-06-02T05:46:55.338Z,99.90
2018-06-02T05:49:23.642Z,99.90
2018-06-02T05:51:51.929Z,99.90
2018-06-02T05:54:20.257Z,99.90
2018-06-02T05:56:48.558Z,99.90
2018-06-02T05:59:18.401Z,99.70
2018-06-02T06:01:46.796Z,99.70
2018-06-02T06:04:15.113Z,99.40
2018-06-02T06:06:43.498Z,99.60
2018-06-02T06:09:11.934Z,99.30
2018-06-02T06:11:41.020Z,99.50
2018-06-02T06:14:09.336Z,99.50
2018-06-02T06:16:37.629Z,99.30
2018-06-02T06:19:06.146Z,99.40
2018-06-02T06:21:34.538Z,99.00
2018-06-02T06:24:02.829Z,98.80
2018-06-02T06:26:31.215Z,99.00
2018-06-02T06:28:59.555Z,98.10
2018-06-02T06:31:27.876Z,98.00
2018-06-02T06:33:56.962Z,98.10
2018-06-02T06:36:25.248Z,98.10
2018-06-02T06:38:53.580Z,97.80
2018-06-02T06:41:21.899Z,97.30
2018-06-02T06:43:50.993Z,97.10
2018-06-02T06:46:19.323Z,97.10
2018-06-02T06:48:47.930Z,97.20
2018-06-02T06:51:16.332Z,97.40
2018-06-02T06:53:44.732Z,96.30
2018-06-02T06:56:13.166Z,96.70
2018-06-02T06:58:41.565Z,95.90
2018-06-02T07:01:10.908Z,95.90
2018-06-02T07:03:40.364Z,95.90
2018-06-02T07:06:08.897Z,95.80
2018-06-02T07:08:37.284Z,94.60
2018-06-02T07:11:05.594Z,94.30
2018-06-02T07:13:33.990Z,94.90
2018-06-02T07:16:02.293Z,94.70
2018-06-02T07:18:30.809Z,95.00
2018-06-02T07:20:59.169Z,92.60
2018-06-02T07:23:27.493Z,93.20
2018-06-02T07:25:55.790Z,93.00
2018-06-02T07:28:24.134Z,91.60
2018-06-02T07:30:52.430Z,92.20
2018-06-02T07:33:20.817Z,93.70
2018-06-02T07:35:49.226Z,93.40
2018-06-02T07:38:17.518Z,94.50
2018-06-02T07:40:45.827Z,92.10
2018-06-02T07:43:14.159Z,92.40
2018-06-02T07:45:42.754Z,92.60
2018-06-02T07:48:11.341Z,91.00
2018-06-02T07:50:39.636Z,90.80
2018-06-02T07:53:07.939Z,92.30
2018-06-02T07:55:36.285Z,91.20
2018-06-02T07:58:05.371Z,91.40
2018-06-02T08:00:33.720Z,91.40
2018-06-02T08:03:02.069Z,90.70
2018-06-02T08:05:30.389Z,90.00
2018-06-02T08:07:58.776Z,91.00
2018-06-02T08:10:27.234Z,90.70
2018-06-02T08:12:56.298Z,90.10
2018-06-02T08:15:24.657Z,90.10
2018-06-02T08:17:53.746Z,89.70
2018-06-02T08:20:22.043Z,89.70
2018-06-02T08:22:50.383Z,87.20
2018-06-02T08:25:19.453Z,89.90
2018-06-02T08:27:47.779Z,89.80
2018-06-02T08:30:16.109Z,86.60
2018-06-02T08:32:44.481Z,87.70
2018-06-02T08:35:12.837Z,86.60
2018-06-02T08:37:41.308Z,85.10
2018-06-02T08:40:10.697Z,85.60
2018-06-02T08:42:39.001Z,85.60
2018-06-02T08:45:07.303Z,84.50
2018-06-02T08:47:35.794Z,88.30
2018-06-02T08:50:04.113Z,86.00
2018-06-02T08:52:32.746Z,86.00
2018-06-02T08:55:01.070Z,85.00
2018-06-02T08:57:30.177Z,81.20
2018-06-02T08:59:59.557Z,81.70
2018-06-02T09:02:27.858Z,81.60
2018-06-02T09:04:56.173Z,83.70
2018-06-02T09:07:24.497Z,83.80
2018-06-02T09:09:52.862Z,82.70
2018-06-02T09:12:21.184Z,81.80
2018-06-02T09:14:49.757Z,82.70
2018-06-02T09:17:18.048Z,81.50
2018-06-02T09:19:46.481Z,81.70
2018-06-02T09:22:15.200Z,82.10
2018-06-02T09:24:44.365Z,81.00
2018-06-02T09:27:13.641Z,83.40
2018-06-02T09:29:42.084Z,82.90
2018-06-02T09:32:11.188Z,87.40
2018-06-02T09:34:39.521Z,87.40
2018-06-02T09:37:08.635Z,83.50
2018-06-02T09:39:37.721Z,84.90
2018-06-02T09:42:06.082Z,84.90
2018-06-02T09:44:34.429Z,82.30
2018-06-02T09:47:02.726Z,80.10
2018-06-02T09:49:31.021Z,78.90
2018-06-02T09:51:59.360Z,79.80
2018-06-02T09:54:28.457Z,79.10
2018-06-02T09:56:56.795Z,78.40
2018-06-02T09:59:25.848Z,76.30
2018-06-02T10:01:54.145Z,76.30
2018-06-02T10:04:22.486Z,80.00
2018-06-02T10:06:50.885Z,79.70
2018-06-02T10:09:19.312Z,78.80
2018-06-02T10:11:47.638Z,78.50
2018-06-02T10:14:16.841Z,77.70
2018-06-02T10:16:45.193Z,77.60
2018-06-02T10:19:13.575Z,77.50
2018-06-02T10:21:41.911Z,78.40
2018-06-02T10:24:10.221Z,80.20
2018-06-02T10:26:38.521Z,78.80
2018-06-02T10:29:07.750Z,76.80
2018-06-02T10:31:36.162Z,76.80
2018-06-02T10:34:04.459Z,79.60
2018-06-02T10:36:32.847Z,79.90
2018-06-02T10:39:01.141Z,77.30
2018-06-02T10:41:29.569Z,78.20
2018-06-02T10:43:57.926Z,77.60
2018-06-02T10:46:26.273Z,78.10
2018-06-02T10:48:54.625Z,78.90
2018-06-02T10:51:22.922Z,79.50
2018-06-02T10:53:51.304Z,78.70
2018-06-02T10:56:19.645Z,77.60
2018-06-02T10:58:47.986Z,78.10
2018-06-02T11:01:16.342Z,76.90
2018-06-02T11:03:44.671Z,77.60
2018-06-02T11:06:13.146Z,77.60
2018-06-02T11:08:41.693Z,78.10
2018-06-02T11:11:10.260Z,77.80
2018-06-02T11:13:38.598Z,77.90
2018-06-02T11:16:06.900Z,76.20
2018-06-02T11:18:35.229Z,75.20
2018-06-02T11:21:03.568Z,74.60
2018-06-02T11:23:31.930Z,74.90
2018-06-02T11:26:00.334Z,74.80
2018-06-02T11:28:28.637Z,74.00
2018-06-02T11:30:57.105Z,75.00
2018-06-02T11:33:25.529Z,75.00
2018-06-02T11:35:54.101Z,76.10
2018-06-02T11:38:23.141Z,75.90
2018-06-02T11:40:51.517Z,75.90
2018-06-02T11:43:19.946Z,77.10
2018-06-02T11:45:48.272Z,79.30
2018-06-02T11:48:16.685Z,77.90
2018-06-02T11:50:46.568Z,79.20
2018-06-02T11:53:14.900Z,79.20
2018-06-02T11:55:43.674Z,79.90
2018-06-02T11:58:12.017Z,81.70
2018-06-02T12:00:40.322Z,82.00
2018-06-02T12:03:08.668Z,82.50
2018-06-02T12:05:37.865Z,83.30
2018-06-02T12:08:06.167Z,83.30
2018-06-02T12:10:34.707Z,81.90
2018-06-02T12:13:03.904Z,82.50
2018-06-02T12:15:32.269Z,82.50
2018-06-02T12:18:00.621Z,83.50
2018-06-02T12:20:29.233Z,83.50
2018-06-02T12:22:57.608Z,83.60
2018-06-02T12:25:25.920Z,83.40
2018-06-02T12:27:54.252Z,82.70
2018-06-02T12:30:23.311Z,81.40
2018-06-02T12:32:51.609Z,81.50
2018-06-02T12:35:20.329Z,82.30
2018-06-02T12:37:48.640Z,82.30
2018-06-02T12:40:16.989Z,80.80
2018-06-02T12:42:45.358Z,81.60
2018-06-02T12:45:13.717Z,80.60
2018-06-02T12:47:42.071Z,81.50
2018-06-02T12:50:10.474Z,80.80
2018-06-02T12:52:39.077Z,80.80
2018-06-02T12:55:07.378Z,78.80
2018-06-02T12:57:35.668Z,79.30
2018-06-02T13:00:04.001Z,77.90
2018-06-02T13:02:32.689Z,76.40
2018-06-02T13:05:01.038Z,75.50
2018-06-02T13:07:30.308Z,76.40
2018-06-02T13:09:58.664Z,76.30
2018-06-02T13:12:27.756Z,73.50
2018-06-02T13:14:56.085Z,73.50
2018-06-02T13:17:25.277Z,75.70
2018-06-02T13:19:53.609Z,75.70
2018-06-02T13:22:22.677Z,74.50
2018-06-02T13:24:51.207Z,74.40
2018-06-02T13:27:19.625Z,74.60
2018-06-02T13:29:47.933Z,75.00
2018-06-02T13:32:16.309Z,76.40
2018-06-02T13:34:44.734Z,78.50
2018-06-02T13:37:13.296Z,78.00
2018-06-02T13:39:41.737Z,78.10
2018-06-02T13:42:10.042Z,78.80
2018-06-02T13:44:38.360Z,79.10
2018-06-02T13:47:07.701Z,80.40
2018-06-02T13:49:36.843Z,79.40
2018-06-02T13:52:05.181Z,79.40
2018-06-02T13:54:33.523Z,81.40
2018-06-02T13:57:02.643Z,82.50
2018-06-02T13:59:31.741Z,82.70
2018-06-02T14:02:00.062Z,82.00
2018-06-02T14:04:29.229Z,82.80
2018-06-02T14:06:57.576Z,82.80
2018-06-02T14:09:25.874Z,82.90
2018-06-02T14:11:54.366Z,84.30
2018-06-02T14:14:22.878Z,86.00
2018-06-02T14:16:51.279Z,85.60
2018-06-02T14:19:19.607Z,86.60
2018-06-02T14:21:48.709Z,85.80
2018-06-02T14:24:17.005Z,85.80
2018-06-02T14:26:45.384Z,88.30
2018-06-02T14:29:13.757Z,88.40
2018-06-02T14:31:42.273Z,89.40
2018-06-02T14:34:11.480Z,90.30
2018-06-02T14:36:40.521Z,90.10
2018-06-02T14:39:08.868Z,90.10
2018-06-02T14:41:37.273Z,89.30
2018-06-02T14:44:05.665Z,89.50
2018-06-02T14:46:34.011Z,87.60
2018-06-02T14:49:03.094Z,88.40
2018-06-02T14:51:31.441Z,88.40
2018-06-02T14:53:59.833Z,86.10
2018-06-02T14:56:28.138Z,81.40
2018-06-02T14:58:56.438Z,78.50
2018-06-02T15:01:25.549Z,78.10
2018-06-02T15:03:54.642Z,76.60
2018-06-02T15:06:22.985Z,76.60
2018-06-02T15:08:52.150Z,74.80
2018-06-02T15:11:20.512Z,74.80
2018-06-02T15:13:49.705Z,76.70
2018-06-02T15:16:19.544Z,76.30
2018-06-02T15:18:48.113Z,76.20
2018-06-02T15:21:16.509Z,77.10
2018-06-02T15:23:45.124Z,78.80
2018-06-02T15:26:13.451Z,80.20
2018-06-02T15:28:41.975Z,78.40
2018-06-02T15:31:10.451Z,78.80
2018-06-02T15:33:38.785Z,79.40
2018-06-02T15:36:07.087Z,78.40
2018-06-02T15:38:35.378Z,79.30
2018-06-02T15:41:03.770Z,76.90
2018-06-02T15:43:32.077Z,73.70
2018-06-02T15:46:00.398Z,73.80
2018-06-02T15:48:28.772Z,73.90
2018-06-02T15:50:57.170Z,73.50
2018-06-02T15:53:25.489Z,74.80
2018-06-02T15:55:53.884Z,74.00
2018-06-02T15:58:22.507Z,72.30
2018-06-02T16:00:50.909Z,70.30
2018-06-02T16:03:19.205Z,68.80
2018-06-02T16:05:47.537Z,66.80
2018-06-02T16:08:16.597Z,64.10
2018-06-02T16:10:44.946Z,63.80
2018-06-02T16:13:14.780Z,69.00
2018-06-02T16:15:43.264Z,68.90
2018-06-02T16:18:11.565Z,71.90
2018-06-02T16:20:39.935Z,72.90
2018-06-02T16:23:08.261Z,74.00
2018-06-02T16:25:36.593Z,75.50
2018-06-02T16:28:04.993Z,76.70
2018-06-02T16:30:33.350Z,76.20
2018-06-02T16:33:02.396Z,76.60
2018-06-02T16:35:30.738Z,75.90
2018-06-02T16:37:59.818Z,78.40
2018-06-02T16:40:28.164Z,77.60
2018-06-02T16:42:57.222Z,79.60
2018-06-02T16:45:25.515Z,79.60
2018-06-02T16:47:53.853Z,80.30
2018-06-02T16:50:22.150Z,80.70
2018-06-02T16:52:50.454Z,80.20
2018-06-02T16:55:18.810Z,79.90
2018-06-02T16:57:48.028Z,79.30
2018-06-02T17:00:18.210Z,78.30
2018-06-02T17:02:46.678Z,78.20
2018-06-02T17:05:15.761Z,77.10
2018-06-02T17:07:44.133Z,77.10
2018-06-02T17:10:12.533Z,77.10
2018-06-02T17:12:41.809Z,78.30
2018-06-02T17:15:10.876Z,79.30
2018-06-02T17:17:39.318Z,79.70
2018-06-02T17:20:07.628Z,79.60
2018-06-02T17:22:35.973Z,81.70
2018-06-02T17:25:04.266Z,81.90
2018-06-02T17:27:33.322Z,82.00
2018-06-02T17:30:01.835Z,82.00
2018-06-02T17:32:30.125Z,82.70
2018-06-02T17:34:58.426Z,83.50
2018-06-02T17:37:26.778Z,84.80
2018-06-02T17:39:55.080Z,84.80
2018-06-02T17:42:23.466Z,85.50
2018-06-02T17:44:51.866Z,85.80
2018-06-02T17:47:20.161Z,85.00
2018-06-02T17:49:48.490Z,85.40
2018-06-02T17:52:16.858Z,85.70
2018-06-02T17:54:45.207Z,85.70
2018-06-02T17:57:14.479Z,86.50
2018-06-02T17:59:43.098Z,86.50
2018-06-02T18:02:11.501Z,86.40
2018-06-02T18:04:39.853Z,86.30
2018-06-02T18:07:09.032Z,86.50
2018-06-02T18:09:37.325Z,86.50
2018-06-02T18:12:05.653Z,87.40
2018-06-02T18:14:33.989Z,87.50
2018-06-02T18:17:02.314Z,87.50
2018-06-02T18:19:30.655Z,87.80
2018-06-02T18:21:58.988Z,88.10
2018-06-02T18:24:27.333Z,88.20
2018-06-02T18:26:55.637Z,88.80
2018-06-02T18:29:23.934Z,89.40
2018-06-02T18:31:52.280Z,88.50
2018-06-02T18:34:20.577Z,88.90
2018-06-02T18:36:48.937Z,88.90
2018-06-02T18:39:17.356Z,89.40
2018-06-02T18:41:45.769Z,90.00
2018-06-02T18:44:14.172Z,89.90
2018-06-02T18:46:42.526Z,90.10
2018-06-02T18:49:10.972Z,89.50
2018-06-02T18:51:39.306Z,89.50
2018-06-02T18:54:09.116Z,90.30
2018-06-02T18:56:37.534Z,90.30
2018-06-02T18:59:05.869Z,90.40
2018-06-02T19:01:34.935Z,90.70
2018-06-02T19:04:03.304Z,90.60
2018-06-02T19:06:31.756Z,90.70
2018-06-02T19:09:00.183Z,90.40
2018-06-02T19:11:29.258Z,90.70
2018-06-02T19:13:57.984Z,90.70
2018-06-02T19:16:26.405Z,90.60
2018-06-02T19:18:54.706Z,90.60
2018-06-02T19:21:23.209Z,90.80
2018-06-02T19:23:51.528Z,90.90
2018-06-02T19:26:19.825Z,90.90
2018-06-02T19:28:48.166Z,91.10
2018-06-02T19:31:17.325Z,91.40
2018-06-02T19:33:45.748Z,91.40
2018-06-02T19:36:15.408Z,91.20
2018-06-02T19:38:44.065Z,91.30
2018-06-02T19:41:12.367Z,91.30
2018-06-02T19:43:40.656Z,91.30
2018-06-02T19:46:08.984Z,91.10
2018-06-02T19:48:37.281Z,91.30
2018-06-02T19:51:05.573Z,91.10
2018-06-02T19:53:33.914Z,91.00
2018-06-02T19:56:02.210Z,91.10
2018-06-02T19:58:30.545Z,91.20
2018-06-02T20:00:59.659Z,91.40
2018-06-02T20:03:28.877Z,91.50
2018-06-02T20:05:57.941Z,91.20
2018-06-02T20:08:26.268Z,91.20
2018-06-02T20:10:54.664Z,91.60
2018-06-02T20:13:23.006Z,91.80
2018-06-02T20:15:52.068Z,91.70
2018-06-02T20:18:20.402Z,91.70
2018-06-02T20:20:48.697Z,91.70
2018-06-02T20:23:17.209Z,91.40
2018-06-02T20:25:45.548Z,91.60
2018-06-02T20:28:15.415Z,91.50
2018-06-02T20:30:43.825Z,91.50
2018-06-02T20:33:12.292Z,91.60
2018-06-02T20:35:41.362Z,91.50
2018-06-02T20:38:10.428Z,91.50
2018-06-02T20:40:39.483Z,91.60
2018-06-02T20:43:07.809Z,91.60
2018-06-02T20:45:36.145Z,91.60
2018-06-02T20:48:04.432Z,91.70
2018-06-02T20:50:32.824Z,91.90
2018-06-02T20:53:01.529Z,92.10
2018-06-02T20:55:29.930Z,92.20
2018-06-02T20:57:58.450Z,92.30
2018-06-02T21:00:26.742Z,92.50
2018-06-02T21:02:55.040Z,92.80
2018-06-02T21:05:23.379Z,92.90
2018-06-02T21:07:51.753Z,92.80
2018-06-02T21:10:20.036Z,93.10
2018-06-02T21:12:48.467Z,93.10
2018-06-02T21:15:16.776Z,93.10
2018-06-02T21:17:45.360Z,93.20
2018-06-02T21:20:14.541Z,93.30
2018-06-02T21:22:43.709Z,93.40
2018-06-02T21:25:12.212Z,93.40
2018-06-02T21:27:41.350Z,93.50
2018-06-02T21:30:11.157Z,93.40
2018-06-02T21:32:39.486Z,93.40
2018-06-02T21:35:07.817Z,93.50
2018-06-02T21:37:37.014Z,93.70
2018-06-02T21:40:05.518Z,93.60
2018-06-02T21:42:33.813Z,93.80
2018-06-02T21:45:02.121Z,93.60
2018-06-02T21:47:30.507Z,94.10
2018-06-02T21:49:58.820Z,94.30
2018-06-02T21:52:27.317Z,94.30
2018-06-02T21:54:55.617Z,94.40
2018-06-02T21:57:23.937Z,94.30
2018-06-02T21:59:52.273Z,94.50
2018-06-02T22:02:21.333Z,94.40
2018-06-02T22:04:49.656Z,94.60
2018-06-02T22:07:17.998Z,94.50
2018-06-02T22:09:47.142Z,94.70
2018-06-02T22:12:15.463Z,94.70
2018-06-02T22:14:44.093Z,94.60
2018-06-02T22:17:13.409Z,94.60
2018-06-02T22:19:41.722Z,94.80
2018-06-02T22:22:10.231Z,94.60
2018-06-02T22:24:38.517Z,94.80
2018-06-02T22:27:06.815Z,95.20
2018-06-02T22:29:35.238Z,95.10
2018-06-02T22:32:03.561Z,95.00
2018-06-02T22:34:31.899Z,95.10
2018-06-02T22:37:00.540Z,95.30
2018-06-02T22:39:28.853Z,95.30
2018-06-02T22:41:57.185Z,95.10
2018-06-02T22:44:25.557Z,94.80
2018-06-02T22:46:53.861Z,95.30
2018-06-02T22:49:22.187Z,95.20
2018-06-02T22:51:57.516Z,95.40
2018-06-02T22:54:25.847Z,95.40
2018-06-02T22:56:55.245Z,95.50
2018-06-02T22:59:23.537Z,95.50
2018-06-02T23:01:52.064Z,95.60
2018-06-02T23:04:20.121Z,95.70
2018-06-02T23:06:48.173Z,95.60
2018-06-02T23:09:16.330Z,95.70
2018-06-02T23:11:45.244Z,96.00
2018-06-02T23:14:14.170Z,96.00
2018-06-02T23:16:42.243Z,96.00
2018-06-02T23:19:11.101Z,96.00
2018-06-02T23:21:39.197Z,96.00
2018-06-02T23:24:07.294Z,95.90
2018-06-02T23:26:35.382Z,96.00
2018-06-02T23:29:03.469Z,95.70
2018-06-02T23:31:31.594Z,95.70
2018-06-02T23:33:59.710Z,95.90
2018-06-02T23:36:27.763Z,95.80
2018-06-02T23:38:56.621Z,95.80
2018-06-02T23:41:24.693Z,95.80
2018-06-02T23:43:52.744Z,95.80
2018-06-02T23:46:20.831Z,96.20
2018-06-02T23:48:48.925Z,96.20
2018-06-02T23:51:18.485Z,96.40
2018-06-02T23:53:47.350Z,96.60
2018-06-02T23:56:15.404Z,96.60
2018-06-02T23:58:43.528Z,96.70
